Time;durP1;ratioP1;P1;durP2;ratioP2;P2;SDS_P1;SDS_P2;PMS_P1;PMS_P2;Temp;Humidity;BMP_temperature;BMP_pressure;BME280_temperature;BME280_humidity;BME280_pressure;Samples;Min_cycle;Max_cycle;Signal;HPM_P1;HPM_P2
2022/01/09 00:01:35;;;;;;;29.92;15.18;;;;;;;4.27;100.00;98607.38;5053990;28;20116;-77
2022/01/09 00:04:00;;;;;;;29.73;16.40;;;;;;;4.34;100.00;98622.16;5054159;28;20365;-77
2022/01/09 00:06:26;;;;;;;34.65;18.65;;;;;;;4.38;100.00;98633.44;5053881;28;20048;-77
2022/01/09 00:08:51;;;;;;;32.92;18.08;;;;;;;4.45;100.00;98646.47;5053735;28;20422;-77
2022/01/09 00:11:18;;;;;;;34.30;19.23;;;;;;;4.52;100.00;98652.56;5052263;28;20067;-76
2022/01/09 00:13:45;;;;;;;32.47;17.48;;;;;;;4.52;100.00;98660.41;5052971;28;20037;-77
2022/01/09 00:16:10;;;;;;;27.38;14.35;;;;;;;4.51;100.00;98683.09;5044954;28;20078;-77
2022/01/09 00:18:35;;;;;;;22.27;9.85;;;;;;;4.51;100.00;98690.94;5053968;28;20481;-77
2022/01/09 00:21:05;;;;;;;22.60;10.40;;;;;;;4.47;100.00;98712.78;5053492;28;20464;-76
2022/01/09 00:23:32;;;;;;;24.17;10.25;;;;;;;4.42;100.00;98713.66;5049364;28;20047;-77
2022/01/09 00:25:58;;;;;;;22.48;9.57;;;;;;;4.45;100.00;98743.28;5053541;28;20029;-77
2022/01/09 00:28:24;;;;;;;21.38;7.35;;;;;;;4.41;100.00;98757.25;5053407;28;20094;-76
2022/01/09 00:30:49;;;;;;;20.25;6.93;;;;;;;4.39;100.00;98753.78;5051711;28;20403;-77
2022/01/09 00:33:15;;;;;;;21.48;6.75;;;;;;;4.34;100.00;98755.56;5053398;28;20024;-77
2022/01/09 00:35:40;;;;;;;19.95;4.90;;;;;;;4.41;100.00;98752.03;5053167;28;20099;-77
2022/01/09 00:38:05;;;;;;;25.73;5.65;;;;;;;4.34;100.00;98773.88;5053196;28;20052;-77
2022/01/09 00:40:31;;;;;;;25.17;6.20;;;;;;;4.41;100.00;98780.78;5053424;28;20033;-71
2022/01/09 00:42:56;;;;;;;24.67;6.30;;;;;;;4.33;100.00;98778.22;5053326;28;20029;-71
2022/01/09 00:45:22;;;;;;;27.92;6.00;;;;;;;4.38;100.00;98786.03;5053014;28;20043;-72
2022/01/09 00:47:47;;;;;;;28.23;6.10;;;;;;;4.40;100.00;98789.53;5053291;28;20017;-71
2022/01/09 00:50:14;;;;;;;31.17;5.80;;;;;;;4.36;100.00;98806.13;5053115;28;20021;-71
2022/01/09 00:52:39;;;;;;;39.75;7.38;;;;;;;4.27;100.00;98808.78;5053040;28;20030;-73
2022/01/09 00:55:06;;;;;;;35.47;6.60;;;;;;;4.33;100.00;98819.22;5053237;28;20459;-71
2022/01/09 00:57:32;;;;;;;30.98;5.93;;;;;;;4.24;100.00;98801.81;5052816;28;20054;-72
2022/01/09 00:59:58;;;;;;;38.72;7.13;;;;;;;4.09;100.00;98805.31;5052735;28;20473;-73
2022/01/09 01:02:24;;;;;;;35.55;7.10;;;;;;;4.05;100.00;98823.63;5053192;28;20032;-71
2022/01/09 01:04:51;;;;;;;39.10;7.43;;;;;;;4.14;100.00;98834.09;5053009;28;20547;-71
2022/01/09 01:07:20;;;;;;;37.17;7.10;;;;;;;4.19;100.00;98843.66;5051279;28;20392;-71
2022/01/09 01:09:46;;;;;;;36.83;7.15;;;;;;;4.09;100.00;98852.41;5052857;28;20468;-71
2022/01/09 01:12:12;;;;;;;36.38;6.60;;;;;;;4.14;100.00;98845.41;5052669;28;20479;-71
2022/01/09 01:14:37;;;;;;;41.58;7.85;;;;;;;4.06;100.00;98852.38;5052683;28;20021;-71
2022/01/09 01:17:03;;;;;;;36.53;6.50;;;;;;;4.17;100.00;98865.44;5052613;28;20113;-71
2022/01/09 01:19:28;;;;;;;33.90;6.63;;;;;;;4.14;100.00;98870.69;5052917;28;20021;-72
2022/01/09 01:21:54;;;;;;;29.73;5.97;;;;;;;4.15;100.00;98868.06;5052730;28;20498;-71
2022/01/09 01:24:21;;;;;;;34.13;6.20;;;;;;;4.16;100.00;98875.03;5052000;28;20029;-71
2022/01/09 01:26:47;;;;;;;33.03;6.03;;;;;;;4.13;100.00;98890.72;5052207;28;20095;-72
2022/01/09 01:29:12;;;;;;;26.95;5.80;;;;;;;4.05;100.00;98882.03;5052580;28;20033;-72
2022/01/09 01:31:37;;;;;;;31.35;5.65;;;;;;;4.05;100.00;98900.34;5052361;28;20029;-71
2022/01/09 01:34:03;;;;;;;33.47;5.70;;;;;;;4.05;100.00;98897.72;5052479;28;20033;-73
2022/01/09 01:36:28;;;;;;;35.30;6.18;;;;;;;4.00;100.00;98900.34;5052534;28;20096;-75
2022/01/09 01:38:53;;;;;;;35.85;7.03;;;;;;;3.94;100.00;98915.16;5052444;28;20050;-76
2022/01/09 01:41:19;;;;;;;38.67;7.40;;;;;;;3.97;100.00;98923.84;5052288;28;20021;-72
2022/01/09 01:43:44;;;;;;;36.25;6.90;;;;;;;4.04;100.00;98934.34;5052571;28;20028;-73
2022/01/09 01:46:10;;;;;;;36.20;7.32;;;;;;;4.22;100.00;98930.84;5052188;28;20032;-76
2022/01/09 01:48:35;;;;;;;40.65;8.13;;;;;;;4.21;100.00;98950.00;5050594;28;20467;-75
2022/01/09 01:51:01;;;;;;;32.10;6.72;;;;;;;4.13;100.00;98957.84;5052608;28;20028;-74
2022/01/09 01:53:26;;;;;;;35.40;7.18;;;;;;;4.09;100.00;98941.31;5052267;28;20494;-76
2022/01/09 01:55:55;;;;;;;35.42;7.45;;;;;;;4.14;100.00;98959.63;5052363;28;20059;-74
2022/01/09 01:58:22;;;;;;;34.58;7.00;;;;;;;4.07;100.00;98974.41;5052476;28;20479;-76
2022/01/09 02:00:47;;;;;;;42.60;7.85;;;;;;;4.07;100.00;98969.19;5051917;28;20075;-74
2022/01/09 02:03:13;;;;;;;39.65;7.65;;;;;;;4.05;100.00;98970.94;5052315;28;20411;-74
2022/01/09 02:05:45;;;;;;;37.28;7.72;;;;;;;4.12;100.00;98998.84;5052491;28;20045;-73
2022/01/09 02:08:11;;;;;;;46.25;8.95;;;;;;;4.06;100.00;99005.78;5052034;28;20031;-75
2022/01/09 02:10:42;;;;;;;44.72;9.50;;;;;;;4.16;100.00;99010.16;5052154;28;20045;-76
2022/01/09 02:13:08;;;;;;;43.75;8.93;;;;;;;4.22;100.00;99004.94;5052479;28;20100;-74
2022/01/09 02:15:33;;;;;;;42.35;8.98;;;;;;;4.23;100.00;99017.16;5051931;28;20543;-77
2022/01/09 02:18:09;;;;;;;44.97;10.02;;;;;;;4.22;100.00;99028.47;5052262;28;20434;-75
2022/01/09 02:20:36;;;;;;;47.00;9.80;;;;;;;4.29;100.00;99031.97;5048705;28;20025;-76
2022/01/09 02:23:03;;;;;;;39.45;8.82;;;;;;;4.27;100.00;99049.44;5051847;28;20460;-77
2022/01/09 02:25:29;;;;;;;45.00;9.80;;;;;;;4.26;100.00;99037.22;5051913;28;20033;-75
2022/01/09 02:27:55;;;;;;;42.10;8.93;;;;;;;4.42;100.00;99046.81;5051938;28;20052;-76
2022/01/09 02:30:20;;;;;;;37.65;7.93;;;;;;;4.36;100.00;99037.22;5051804;28;20040;-77
2022/01/09 02:32:46;;;;;;;43.35;8.43;;;;;;;4.37;100.00;99051.19;5051873;28;20043;-76
2022/01/09 02:35:11;;;;;;;39.88;7.93;;;;;;;4.39;100.00;99038.97;5052150;28;20025;-76
2022/01/09 02:37:37;;;;;;;42.10;8.43;;;;;;;4.42;100.00;99049.44;5055609;28;20029;-75
2022/01/09 02:40:06;;;;;;;38.65;8.95;;;;;;;4.39;100.00;99062.50;5055546;28;20056;-76
2022/01/09 02:42:32;;;;;;;42.10;8.93;;;;;;;4.34;100.00;99072.13;5051578;28;20033;-76
2022/01/09 02:44:58;;;;;;;44.08;9.73;;;;;;;4.39;100.00;99074.72;5055201;28;20025;-76
2022/01/09 02:47:27;;;;;;;40.35;8.60;;;;;;;4.34;100.00;99090.44;5055548;28;20032;-76
2022/01/09 02:49:54;;;;;;;40.67;8.10;;;;;;;4.45;100.00;99088.69;5055524;28;20028;-76
2022/01/09 02:57:31;;;;;;;38.22;7.00;;;;;;;4.40;100.00;99082.59;5055012;28;20446;-71
2022/01/09 02:59:56;;;;;;;38.25;7.85;;;;;;;4.43;100.00;99115.75;5054678;28;20079;-71
2022/01/09 03:02:21;;;;;;;33.80;7.28;;;;;;;4.48;100.00;99101.75;5050099;28;20131;-72
2022/01/09 03:04:47;;;;;;;33.38;6.57;;;;;;;4.48;100.00;99124.44;5054961;28;20022;-71
2022/01/09 03:07:12;;;;;;;37.72;7.47;;;;;;;4.45;100.00;99135.78;5055463;28;20391;-71
2022/01/09 03:09:37;;;;;;;35.05;6.88;;;;;;;4.41;100.00;99131.41;5054866;28;20474;-71
2022/01/09 03:12:04;;;;;;;32.92;6.00;;;;;;;4.44;100.00;99149.75;5054725;28;20021;-72
2022/01/09 03:14:30;;;;;;;31.75;6.30;;;;;;;4.42;100.00;99164.56;5054927;28;20033;-72
2022/01/09 03:16:55;;;;;;;33.10;5.90;;;;;;;4.43;100.00;99145.38;5054969;28;20490;-71
2022/01/09 03:19:20;;;;;;;27.55;5.57;;;;;;;4.42;100.00;99159.31;5054701;28;20543;-71
2022/01/09 03:21:46;;;;;;;30.63;6.22;;;;;;;4.35;100.00;99157.56;5055043;28;20036;-71
2022/01/09 03:24:11;;;;;;;31.85;6.50;;;;;;;4.28;100.00;99171.50;5054588;28;20045;-72
2022/01/09 03:26:36;;;;;;;29.58;5.90;;;;;;;4.28;100.00;99172.38;5054541;28;20055;-72
2022/01/09 03:29:02;;;;;;;33.45;6.45;;;;;;;4.25;100.00;99184.56;5054420;28;20104;-72
2022/01/09 03:31:27;;;;;;;28.17;5.78;;;;;;;4.31;100.00;99176.72;5054453;28;20032;-72
2022/01/09 03:33:52;;;;;;;29.70;5.22;;;;;;;4.29;100.00;99179.34;5054688;28;20028;-71
2022/01/09 03:36:18;;;;;;;33.30;5.82;;;;;;;4.27;100.00;99196.78;5054423;28;20021;-72
2022/01/09 03:38:43;;;;;;;30.13;6.05;;;;;;;4.24;100.00;99208.97;5054420;28;20033;-71
2022/01/09 03:41:08;;;;;;;32.75;5.65;;;;;;;4.26;100.00;99202.88;5054500;28;20029;-72
2022/01/09 03:43:34;;;;;;;26.95;4.55;;;;;;;4.34;100.00;99213.41;5054176;28;20025;-72
2022/01/09 03:45:59;;;;;;;27.83;5.50;;;;;;;4.28;100.00;99223.81;5054143;28;20021;-71
2022/01/09 03:48:24;;;;;;;28.27;5.32;;;;;;;4.27;100.00;99212.50;5053919;28;20467;-71
2022/01/09 03:50:51;;;;;;;30.23;5.43;;;;;;;4.25;100.00;99234.28;5054074;28;20039;-72
2022/01/09 03:53:17;;;;;;;28.73;5.43;;;;;;;4.23;100.00;99249.09;5054095;28;20040;-72
2022/01/09 03:55:43;;;;;;;26.77;4.97;;;;;;;4.21;100.00;99241.25;5050153;28;20021;-72
2022/01/09 03:58:08;;;;;;;30.30;6.55;;;;;;;4.11;100.00;99247.31;5054041;28;20103;-71
2022/01/09 04:00:34;;;;;;;31.90;6.10;;;;;;;4.05;100.00;99242.91;5053785;28;20029;-73
2022/01/09 04:02:59;;;;;;;27.25;5.93;;;;;;;4.10;100.00;99262.09;5052667;28;20079;-76
2022/01/09 04:05:24;;;;;;;29.83;5.65;;;;;;;4.27;100.00;99274.41;5052528;28;20047;-75
2022/01/09 04:07:51;;;;;;;28.38;5.45;;;;;;;4.17;100.00;99284.81;5054066;28;20032;-75
2022/01/09 04:10:18;;;;;;;25.27;5.40;;;;;;;4.12;100.00;99277.78;5054071;28;20041;-75
2022/01/09 04:12:49;;;;;;;25.70;4.95;;;;;;;4.10;100.00;99267.31;5049795;28;20032;-75
2022/01/09 04:15:15;;;;;;;29.42;5.50;;;;;;;4.07;100.00;99293.47;5049689;28;20444;-73
2022/01/09 04:20:15;;;;;;;25.75;4.40;;;;;;;4.11;100.00;99295.25;5050001;28;20033;-75
2022/01/09 04:22:41;;;;;;;27.05;4.85;;;;;;;4.01;100.00;99315.22;5053385;28;20068;-75
2022/01/09 04:25:07;;;;;;;27.48;5.07;;;;;;;4.03;100.00;99310.00;5053669;28;20032;-76
2022/01/09 04:27:33;;;;;;;26.27;5.10;;;;;;;3.97;100.00;99315.19;5053180;28;20072;-75
2022/01/09 04:29:58;;;;;;;27.08;5.07;;;;;;;3.90;100.00;99331.72;5053254;28;20021;-75
2022/01/09 04:32:24;;;;;;;24.80;4.18;;;;;;;3.91;100.00;99336.09;5053791;28;20117;-75
2022/01/09 04:34:50;;;;;;;29.55;5.45;;;;;;;3.94;100.00;99336.09;5053338;28;20025;-74
2022/01/09 04:37:16;;;;;;;23.65;4.53;;;;;;;3.90;100.00;99347.41;5053411;28;20021;-75
2022/01/09 04:39:41;;;;;;;26.58;5.07;;;;;;;3.81;100.00;99351.69;5053496;28;20399;-71
2022/01/09 04:42:07;;;;;;;23.00;4.30;;;;;;;3.90;100.00;99365.69;5046405;28;20472;-71
2022/01/09 04:44:32;;;;;;;27.25;5.50;;;;;;;3.83;100.00;99352.59;5051498;28;20467;-71
2022/01/09 04:47:03;;;;;;;29.05;5.28;;;;;;;3.82;100.00;99353.44;5053145;28;20037;-72
2022/01/09 04:49:35;;;;;;;27.00;5.57;;;;;;;3.74;100.00;99373.44;5049691;28;20079;-72
2022/01/09 04:52:03;;;;;;;27.77;5.47;;;;;;;3.67;100.00;99382.09;5052973;28;20028;-72
2022/01/09 04:54:28;;;;;;;28.58;5.15;;;;;;;3.68;100.00;99383.81;5049356;28;20037;-72
2022/01/09 04:56:54;;;;;;;26.63;5.50;;;;;;;3.64;100.00;99395.09;5049965;28;20076;-71
2022/01/09 04:59:19;;;;;;;26.88;4.88;;;;;;;3.71;100.00;99398.66;5052689;28;20033;-71
2022/01/09 05:01:44;;;;;;;28.10;5.18;;;;;;;3.69;100.00;99416.94;5052976;28;20032;-72
2022/01/09 05:04:10;;;;;;;28.33;5.30;;;;;;;3.70;100.00;99408.25;5053115;28;20095;-72
2022/01/09 05:06:36;;;;;;;25.63;4.85;;;;;;;3.69;100.00;99411.72;5052896;28;20090;-71
2022/01/09 05:09:01;;;;;;;26.08;4.97;;;;;;;3.75;100.00;99414.38;5052936;28;20036;-71
2022/01/09 05:11:27;;;;;;;29.98;5.53;;;;;;;3.64;100.00;99435.19;5052760;28;20395;-72
2022/01/09 05:13:52;;;;;;;27.80;5.32;;;;;;;3.66;100.00;99445.66;5053021;28;20032;-71
2022/01/09 05:16:17;;;;;;;28.25;5.15;;;;;;;3.66;100.00;99450.88;5052601;28;20040;-71
2022/01/09 05:18:52;;;;;;;28.13;5.05;;;;;;;3.72;100.00;99442.22;5052712;28;20518;-71
2022/01/09 05:21:18;;;;;;;25.98;4.97;;;;;;;3.72;100.00;99460.53;5052388;28;20079;-72
2022/01/09 05:23:44;;;;;;;26.92;5.03;;;;;;;3.64;100.00;99463.94;5052790;28;20049;-71
2022/01/09 05:26:09;;;;;;;26.13;4.90;;;;;;;3.61;100.00;99476.97;5052703;28;20057;-71
2022/01/09 05:28:35;;;;;;;25.38;4.63;;;;;;;3.67;100.00;99481.41;5052349;28;20459;-72
2022/01/09 05:31:00;;;;;;;26.55;5.28;;;;;;;3.61;100.00;99487.44;5052759;28;20047;-71
2022/01/09 05:33:25;;;;;;;28.25;5.10;;;;;;;3.59;100.00;99488.28;5048562;28;20075;-72
2022/01/09 05:35:51;;;;;;;26.48;5.20;;;;;;;3.31;100.00;99487.94;5052539;28;20104;-72
2022/01/09 05:38:18;;;;;;;26.20;5.72;;;;;;;3.40;100.00;99487.19;5051199;28;20049;-71
2022/01/09 05:40:44;;;;;;;23.58;4.85;;;;;;;3.19;100.00;99503.47;5052344;28;20021;-75
2022/01/09 05:43:11;;;;;;;23.90;5.40;;;;;;;3.13;100.00;99496.41;5052531;28;20082;-74
2022/01/09 05:45:36;;;;;;;29.42;5.90;;;;;;;3.13;100.00;99506.84;5052145;28;20028;-75
2022/01/09 05:48:02;;;;;;;28.55;5.60;;;;;;;3.19;100.00;99513.91;5052334;28;20025;-75
2022/01/09 05:50:27;;;;;;;26.30;5.45;;;;;;;3.21;100.00;99509.59;5052548;28;20027;-74
2022/01/09 05:52:53;;;;;;;29.45;5.70;;;;;;;3.16;100.00;99503.41;5052234;28;20021;-75
2022/01/09 05:55:18;;;;;;;32.05;6.60;;;;;;;3.17;100.00;99519.09;5052451;28;20117;-75
2022/01/09 05:57:44;;;;;;;29.65;6.07;;;;;;;3.12;100.00;99512.97;5048304;28;20049;-73
2022/01/09 06:00:09;;;;;;;30.10;6.43;;;;;;;3.06;100.00;99513.75;5052666;28;20082;-74
2022/01/09 06:02:35;;;;;;;30.15;6.18;;;;;;;3.21;100.00;99518.28;5052025;28;20028;-75
2022/01/09 06:05:00;;;;;;;31.50;6.50;;;;;;;3.12;100.00;99524.28;5052571;28;20031;-72
2022/01/09 06:07:25;;;;;;;30.58;5.88;;;;;;;3.16;100.00;99524.31;5067699;28;20026;-73
2022/01/09 06:09:51;;;;;;;31.13;6.07;;;;;;;3.23;100.00;99531.38;5052135;28;20056;-74
2022/01/09 06:12:16;;;;;;;33.75;6.47;;;;;;;3.23;100.00;99541.81;5055810;28;20488;-75
2022/01/09 06:14:41;;;;;;;27.60;6.30;;;;;;;3.28;100.00;99537.56;5055917;28;20024;-74
2022/01/09 06:17:07;;;;;;;28.20;6.10;;;;;;;3.30;100.00;99546.28;5056365;28;20017;-74
2022/01/09 06:19:33;;;;;;;32.75;5.80;;;;;;;3.28;100.00;99550.63;5055967;28;20437;-75
2022/01/09 06:21:58;;;;;;;27.27;5.80;;;;;;;3.28;100.00;99545.38;5055796;28;20029;-75
2022/01/09 06:24:24;;;;;;;27.00;5.70;;;;;;;3.31;100.00;99545.44;5056089;28;20105;-74
2022/01/09 06:26:49;;;;;;;31.63;5.90;;;;;;;3.28;100.00;99550.63;5055610;28;20071;-70
2022/01/09 06:29:14;;;;;;;28.85;6.35;;;;;;;3.30;100.00;99560.19;5055722;28;20467;-75
2022/01/09 06:31:40;;;;;;;28.25;5.35;;;;;;;3.32;100.00;99557.63;5055706;28;20024;-74
2022/01/09 06:34:05;;;;;;;27.45;5.82;;;;;;;3.28;100.00;99561.94;5055812;28;20076;-75
2022/01/09 06:36:31;;;;;;;28.27;6.53;;;;;;;3.24;100.00;99556.66;5055560;28;20036;-75
2022/01/09 06:38:56;;;;;;;28.63;6.15;;;;;;;3.28;100.00;99566.28;5055808;28;20028;-75
2022/01/09 06:41:21;;;;;;;28.08;5.53;;;;;;;3.33;100.00;99574.19;5054045;28;20103;-74
2022/01/09 06:43:46;;;;;;;28.95;5.88;;;;;;;3.30;100.00;99580.22;5055500;28;20027;-73
2022/01/09 06:46:12;;;;;;;27.58;5.57;;;;;;;3.32;100.00;99586.38;5055627;28;20017;-74
2022/01/09 06:48:37;;;;;;;28.48;5.57;;;;;;;3.32;100.00;99591.59;5055219;28;20082;-75
2022/01/09 06:51:03;;;;;;;28.15;5.28;;;;;;;3.36;100.00;99605.56;5055697;28;20021;-75
2022/01/09 06:53:28;;;;;;;28.33;5.45;;;;;;;3.35;100.00;99589.03;5054147;28;20468;-75
2022/01/09 06:55:53;;;;;;;26.88;5.00;;;;;;;3.35;100.00;99583.78;5055288;28;20037;-75
2022/01/09 06:58:21;;;;;;;28.75;5.40;;;;;;;3.35;100.00;99595.97;5055386;28;20468;-75
2022/01/09 07:00:47;;;;;;;29.75;5.80;;;;;;;3.47;100.00;99603.97;5051252;28;20463;-75
2022/01/09 07:03:13;;;;;;;26.25;5.00;;;;;;;3.43;100.00;99603.03;5054831;28;20414;-75
2022/01/09 07:05:38;;;;;;;25.45;5.05;;;;;;;3.44;100.00;99617.00;5055268;28;20021;-72
2022/01/09 07:08:04;;;;;;;29.27;5.15;;;;;;;3.48;100.00;99618.78;5055027;28;20099;-74
2022/01/09 07:10:29;;;;;;;26.90;5.03;;;;;;;3.41;100.00;99615.22;5054934;28;20038;-75
2022/01/09 07:12:54;;;;;;;26.88;4.93;;;;;;;3.45;100.00;99630.09;5055045;28;20494;-74
2022/01/09 07:15:20;;;;;;;25.50;4.90;;;;;;;3.40;100.00;99629.13;5055077;28;20031;-75
2022/01/09 07:17:45;;;;;;;25.48;4.72;;;;;;;3.43;100.00;99634.41;5054685;28;20472;-75
2022/01/09 07:20:11;;;;;;;28.48;5.30;;;;;;;3.39;100.00;99635.22;5054867;28;20021;-75
2022/01/09 07:22:36;;;;;;;25.90;5.05;;;;;;;3.34;100.00;99634.28;5053451;28;20116;-75
2022/01/09 07:25:02;;;;;;;27.13;5.05;;;;;;;3.36;100.00;99642.13;5054917;28;20044;-73
2022/01/09 07:27:27;;;;;;;27.83;5.40;;;;;;;3.44;100.00;99651.84;5053081;28;20077;-73
2022/01/09 07:29:53;;;;;;;27.20;5.43;;;;;;;3.34;100.00;99649.09;5054616;28;20024;-73
2022/01/09 07:32:18;;;;;;;28.00;5.80;;;;;;;3.22;100.00;99657.59;5052935;28;20108;-73
2022/01/09 07:34:43;;;;;;;27.50;5.03;;;;;;;3.16;100.00;99661.03;5054459;28;20088;-73
2022/01/09 07:37:08;;;;;;;21.98;4.70;;;;;;;3.04;100.00;99647.75;5054378;28;20023;-74
2022/01/09 07:39:34;;;;;;;26.42;5.03;;;;;;;3.03;100.00;99661.66;5054742;28;20033;-73
2022/01/09 07:41:59;;;;;;;24.08;4.68;;;;;;;3.00;100.00;99670.34;5054320;28;20036;-72
2022/01/09 07:44:25;;;;;;;25.00;5.13;;;;;;;3.13;100.00;99668.78;5054475;28;20044;-72
2022/01/09 07:46:51;;;;;;;25.17;5.38;;;;;;;3.07;100.00;99666.06;5054519;28;20392;-72
2022/01/09 07:49:16;;;;;;;25.55;4.70;;;;;;;3.23;100.00;99673.31;5050094;28;20028;-72
2022/01/09 07:51:42;;;;;;;24.77;4.78;;;;;;;3.24;100.00;99688.13;5051488;28;20025;-73
2022/01/09 07:54:07;;;;;;;27.20;4.88;;;;;;;3.12;100.00;99701.88;5052119;28;20028;-72
2022/01/09 07:56:32;;;;;;;24.05;4.53;;;;;;;3.08;100.00;99699.19;5050322;28;20032;-71
2022/01/09 07:58:58;;;;;;;21.33;4.22;;;;;;;3.09;100.00;99699.19;5051528;28;20029;-72
2022/01/09 08:01:23;;;;;;;23.08;4.10;;;;;;;3.07;100.00;99710.47;5051685;28;20427;-72
2022/01/09 08:03:48;;;;;;;21.60;3.70;;;;;;;3.16;100.00;99697.59;5050985;28;20102;-70
2022/01/09 08:06:14;;;;;;;22.08;3.97;;;;;;;3.20;100.00;99709.81;5051387;28;20140;-72
2022/01/09 08:08:39;;;;;;;25.50;4.25;;;;;;;3.11;100.00;99705.31;5051492;28;20021;-72
2022/01/09 08:11:04;;;;;;;24.17;4.35;;;;;;;3.06;100.00;99717.44;5051758;28;20040;-73
2022/01/09 08:13:29;;;;;;;21.58;3.97;;;;;;;2.99;100.00;99719.94;5051011;28;20044;-72
2022/01/09 08:15:55;;;;;;;23.20;4.40;;;;;;;2.88;100.00;99717.97;5051124;28;20505;-72
2022/01/09 08:18:20;;;;;;;28.05;4.85;;;;;;;2.86;100.00;99726.66;5049163;28;20116;-72
2022/01/09 08:20:45;;;;;;;21.45;4.47;;;;;;;2.96;100.00;99728.56;5049610;28;20518;-71
2022/01/09 08:23:11;;;;;;;23.83;4.57;;;;;;;3.06;100.00;99748.78;5051116;28;20383;-71
2022/01/09 08:25:36;;;;;;;22.75;4.05;;;;;;;3.11;100.00;99747.09;5051420;28;20028;-71
2022/01/09 08:28:02;;;;;;;23.10;4.25;;;;;;;3.07;100.00;99747.94;5050371;28;20048;-71
2022/01/09 08:30:27;;;;;;;24.00;4.55;;;;;;;3.00;100.00;99742.56;5050962;28;20056;-71
2022/01/09 08:32:53;;;;;;;25.77;4.88;;;;;;;2.91;100.00;99749.38;5051104;28;20116;-71
2022/01/09 08:35:20;;;;;;;24.85;4.97;;;;;;;2.87;100.00;99755.41;5050843;28;20036;-74
2022/01/09 08:37:45;;;;;;;25.58;5.15;;;;;;;2.82;100.00;99750.94;5050409;28;20392;-72
2022/01/09 08:40:21;;;;;;;26.15;5.18;;;;;;;2.79;100.00;99756.97;5050997;28;20021;-73
2022/01/09 08:42:47;;;;;;;25.58;5.05;;;;;;;2.81;100.00;99762.22;5048269;28;20049;-72
2022/01/09 08:45:14;;;;;;;31.33;5.47;;;;;;;2.81;100.00;99759.63;5051167;28;20079;-71
2022/01/09 08:47:39;;;;;;;27.85;5.85;;;;;;;2.79;100.00;99765.69;5052577;28;20021;-71
2022/01/09 08:50:06;;;;;;;27.05;5.78;;;;;;;2.81;100.00;99773.56;5053271;28;20040;-71
2022/01/09 08:52:32;;;;;;;25.40;5.05;;;;;;;2.84;100.00;99771.00;5053088;28;20021;-72
2022/01/09 08:54:58;;;;;;;25.15;5.13;;;;;;;2.76;100.00;99770.84;5053138;28;20091;-72
2022/01/09 08:57:25;;;;;;;24.38;5.20;;;;;;;2.70;100.00;99781.19;5053366;28;20025;-72
2022/01/09 08:59:51;;;;;;;25.98;5.43;;;;;;;2.67;100.00;99793.31;5052744;28;20495;-72
2022/01/09 09:02:16;;;;;;;27.25;5.00;;;;;;;2.80;100.00;99797.91;5052822;28;20061;-72
2022/01/09 09:04:41;;;;;;;24.90;5.15;;;;;;;2.87;100.00;99785.81;5053073;28;20081;-71
2022/01/09 09:07:07;;;;;;;25.48;4.97;;;;;;;2.88;100.00;99791.06;5052932;28;20033;-71
2022/01/09 09:09:32;;;;;;;24.55;5.38;;;;;;;2.97;100.00;99803.41;5053009;28;20036;-71
2022/01/09 09:11:57;;;;;;;25.25;5.32;;;;;;;3.27;100.00;99805.72;5052927;28;20484;-71
2022/01/09 09:14:23;;;;;;;25.23;5.05;;;;;;;3.64;100.00;99803.72;5052441;28;20434;-73
2022/01/09 09:16:48;;;;;;;28.60;5.60;;;;;;;3.76;100.00;99804.78;5052693;28;20071;-73
2022/01/09 09:19:14;;;;;;;24.67;5.57;;;;;;;3.74;100.00;99819.53;5052815;28;20067;-72
2022/01/09 09:21:39;;;;;;;28.30;6.15;;;;;;;3.60;100.00;99827.19;5052323;28;20108;-72
2022/01/09 09:24:04;;;;;;;25.88;5.63;;;;;;;3.44;100.00;99833.88;5052684;28;20495;-71
2022/01/09 09:26:30;;;;;;;25.88;6.18;;;;;;;3.33;100.00;99836.28;5052541;28;20178;-71
2022/01/09 09:28:55;;;;;;;26.83;6.68;;;;;;;3.33;100.00;99835.41;5052511;28;20033;-71
2022/01/09 09:31:21;;;;;;;29.23;6.25;;;;;;;3.31;100.00;99832.78;5052606;28;20029;-71
2022/01/09 09:33:47;;;;;;;27.75;6.15;;;;;;;3.34;100.00;99835.44;5052518;28;20052;-72
2022/01/09 09:36:13;;;;;;;26.55;6.32;;;;;;;3.35;100.00;99837.22;5052353;28;20494;-71
2022/01/09 09:38:38;;;;;;;27.13;6.50;;;;;;;3.45;100.00;99841.75;5052419;28;20033;-71
2022/01/09 09:41:04;;;;;;;25.60;5.80;;;;;;;3.65;100.00;99847.28;5052447;28;20032;-71
2022/01/09 09:43:29;;;;;;;26.20;5.38;;;;;;;3.93;100.00;99839.91;5052580;28;20123;-71
2022/01/09 09:45:55;;;;;;;28.13;5.68;;;;;;;4.06;100.00;99848.78;5054168;28;20047;-71
2022/01/09 09:48:20;;;;;;;27.70;5.40;;;;;;;4.11;100.00;99860.22;5056470;28;20537;-71
2022/01/09 09:50:46;;;;;;;24.77;5.05;;;;;;;3.94;100.00;99866.94;5056336;28;20029;-71
2022/01/09 09:53:12;;;;;;;25.80;5.30;;;;;;;3.75;100.00;99870.97;5056519;28;20053;-71
2022/01/09 09:55:37;;;;;;;23.98;4.57;;;;;;;3.49;100.00;99877.53;5056219;28;20083;-71
2022/01/09 09:58:02;;;;;;;18.98;3.50;;;;;;;3.53;100.00;99870.63;5056473;28;20107;-74
2022/01/09 10:00:28;;;;;;;22.92;4.35;;;;;;;3.34;100.00;99869.41;5052210;28;20067;-73
2022/01/09 10:02:57;;;;;;;24.23;4.55;;;;;;;3.35;100.00;99873.78;5056130;28;20081;-73
2022/01/09 10:05:24;;;;;;;23.45;4.50;;;;;;;3.36;100.00;99872.91;5056396;28;20478;-74
2022/01/09 10:07:52;;;;;;;23.23;4.38;;;;;;;3.43;100.00;99879.16;5056287;28;20025;-71
2022/01/09 10:10:21;;;;;;;24.27;4.63;;;;;;;3.52;100.00;99883.66;5056564;28;20057;-73
2022/01/09 10:12:48;;;;;;;26.40;4.90;;;;;;;3.64;100.00;99878.63;5056004;28;20024;-70
2022/01/09 10:15:19;;;;;;;26.73;5.30;;;;;;;3.84;100.00;99887.72;5056297;28;20365;-72
2022/01/09 10:17:48;;;;;;;26.58;5.40;;;;;;;4.12;100.00;99879.41;5054395;28;20013;-72
2022/01/09 10:20:23;;;;;;;24.38;5.13;;;;;;;4.22;100.00;99877.81;5055942;28;20033;-73
2022/01/09 10:22:53;;;;;;;26.38;5.20;;;;;;;4.24;100.00;99884.81;5055548;28;20436;-74
2022/01/09 10:25:31;;;;;;;27.25;5.47;;;;;;;4.23;100.00;99888.28;5055542;28;20037;-74
2022/01/09 10:27:58;;;;;;;28.90;6.07;;;;;;;4.22;100.00;99896.13;5051711;28;20038;-70
2022/01/09 10:30:26;;;;;;;27.67;5.95;;;;;;;4.21;100.00;99886.50;5051574;28;20475;-69
2022/01/09 10:32:55;;;;;;;27.60;6.07;;;;;;;4.28;100.00;99893.59;5055906;28;20503;-69
2022/01/09 10:35:21;;;;;;;29.92;6.10;;;;;;;4.31;100.00;99888.41;5055650;28;20040;-72
2022/01/09 10:38:01;;;;;;;30.20;5.70;;;;;;;4.33;100.00;99887.56;5055507;28;20025;-74
2022/01/09 10:40:35;;;;;;;26.52;5.15;;;;;;;4.40;100.00;99896.41;5051995;28;20108;-75
2022/01/09 10:43:16;;;;;;;26.63;5.60;;;;;;;4.53;100.00;99898.31;5047481;28;20033;-75
2022/01/09 10:46:01;;;;;;;26.88;6.25;;;;;;;4.67;100.00;99900.25;5052112;28;20024;-70
2022/01/09 10:48:32;;;;;;;27.10;6.20;;;;;;;4.90;100.00;99903.16;5052025;28;20028;-71
2022/01/09 10:50:59;;;;;;;27.40;5.47;;;;;;;5.10;100.00;99903.41;5052397;28;20096;-70
2022/01/09 10:53:31;;;;;;;28.05;5.32;;;;;;;5.22;100.00;99900.03;5052836;28;20056;-71
2022/01/09 10:56:07;;;;;;;26.05;5.65;;;;;;;5.31;100.00;99907.13;5053142;28;20463;-70
2022/01/09 10:58:35;;;;;;;26.50;5.10;;;;;;;5.34;100.00;99912.41;5052851;28;20533;-70
2022/01/09 11:01:12;;;;;;;26.10;5.53;;;;;;;5.46;100.00;99916.88;5052142;28;20033;-70
2022/01/09 11:03:40;;;;;;;27.48;5.55;;;;;;;5.75;100.00;99920.69;5052475;28;20047;-69
2022/01/09 11:06:07;;;;;;;23.77;5.25;;;;;;;6.01;100.00;99921.81;5052881;28;20071;-69
2022/01/09 11:08:35;;;;;;;26.60;5.22;;;;;;;6.46;100.00;99915.13;5052803;28;20028;-71
2022/01/09 11:11:01;;;;;;;25.20;5.20;;;;;;;7.18;100.00;99924.22;5050759;28;20049;-70
2022/01/09 11:13:28;;;;;;;25.05;5.15;;;;;;;7.17;100.00;99920.75;5052156;28;20052;-70
2022/01/09 11:18:41;;;;;;;25.15;4.95;;;;;;;7.74;100.00;99923.50;5052828;28;20052;-71
2022/01/09 11:21:07;;;;;;;24.80;4.80;;;;;;;7.09;100.00;99935.59;5050720;28;20043;-71
2022/01/09 11:23:43;;;;;;;21.73;4.30;;;;;;;6.61;100.00;99930.09;5051547;28;20021;-70
2022/01/09 11:26:13;;;;;;;23.77;4.68;;;;;;;6.33;100.00;99940.41;5052306;28;20057;-71
2022/01/09 11:28:43;;;;;;;25.27;5.28;;;;;;;6.54;100.00;99944.94;5054646;28;20059;-71
2022/01/09 11:31:33;;;;;;;23.75;4.32;;;;;;;6.56;100.00;99934.47;5054446;28;20025;-71